sensor_id;sensor_type;location;lat;lon;timestamp;P1;durP1;ratioP1;P2;durP2;ratioP2
5787;SDS011;2920;48.158;12.254;2023-07-08T00:01:40;6.97;;;3.85;;
5787;SDS011;2920;48.158;12.254;2023-07-08T00:04:05;6.75;;;3.40;;
5787;SDS011;2920;48.158;12.254;2023-07-08T00:06:32;5.43;;;3.40;;
5787;SDS011;2920;48.158;12.254;2023-07-08T00:08:57;5.65;;;3.47;;
5787;SDS011;2920;48.158;12.254;2023-07-08T00:11:23;5.07;;;3.25;;
5787;SDS011;2920;48.158;12.254;2023-07-08T00:13:48;5.57;;;3.42;;
5787;SDS011;2920;48.158;12.254;2023-07-08T00:16:17;5.55;;;3.00;;
5787;SDS011;2920;48.158;12.254;2023-07-08T00:21:12;11.90;;;3.40;;
5787;SDS011;2920;48.158;12.254;2023-07-08T00:23:45;5.43;;;3.38;;
5787;SDS011;2920;48.158;12.254;2023-07-08T00:28:55;6.20;;;3.67;;
5787;SDS011;2920;48.158;12.254;2023-07-08T00:31:21;7.18;;;3.67;;
5787;SDS011;2920;48.158;12.254;2023-07-08T00:33:49;4.40;;;3.15;;
5787;SDS011;2920;48.158;12.254;2023-07-08T00:36:15;6.75;;;3.80;;
5787;SDS011;2920;48.158;12.254;2023-07-08T00:38:42;9.50;;;3.30;;
5787;SDS011;2920;48.158;12.254;2023-07-08T00:41:17;7.57;;;3.42;;
5787;SDS011;2920;48.158;12.254;2023-07-08T00:43:48;6.85;;;3.38;;
5787;SDS011;2920;48.158;12.254;2023-07-08T00:46:26;6.15;;;3.30;;
5787;SDS011;2920;48.158;12.254;2023-07-08T00:51:32;6.32;;;3.10;;
5787;SDS011;2920;48.158;12.254;2023-07-08T00:53:58;7.13;;;3.40;;
5787;SDS011;2920;48.158;12.254;2023-07-08T00:56:27;5.65;;;3.78;;
5787;SDS011;2920;48.158;12.254;2023-07-08T00:59:03;5.80;;;3.25;;
5787;SDS011;2920;48.158;12.254;2023-07-08T01:01:31;5.68;;;3.25;;
5787;SDS011;2920;48.158;12.254;2023-07-08T01:04:01;5.68;;;3.40;;
5787;SDS011;2920;48.158;12.254;2023-07-08T01:06:29;6.57;;;3.33;;
5787;SDS011;2920;48.158;12.254;2023-07-08T01:08:56;7.32;;;3.30;;
5787;SDS011;2920;48.158;12.254;2023-07-08T01:11:23;6.25;;;3.50;;
5787;SDS011;2920;48.158;12.254;2023-07-08T01:13:48;7.30;;;3.25;;
5787;SDS011;2920;48.158;12.254;2023-07-08T01:16:15;9.25;;;3.30;;
5787;SDS011;2920;48.158;12.254;2023-07-08T01:18:41;5.97;;;3.40;;
5787;SDS011;2920;48.158;12.254;2023-07-08T01:21:26;6.60;;;4.05;;
5787;SDS011;2920;48.158;12.254;2023-07-08T01:24:00;7.63;;;3.63;;
5787;SDS011;2920;48.158;12.254;2023-07-08T01:26:26;6.80;;;4.50;;
5787;SDS011;2920;48.158;12.254;2023-07-08T01:28:52;5.72;;;3.50;;
5787;SDS011;2920;48.158;12.254;2023-07-08T01:31:18;7.30;;;3.75;;
5787;SDS011;2920;48.158;12.254;2023-07-08T01:33:44;5.85;;;3.63;;
5787;SDS011;2920;48.158;12.254;2023-07-08T01:36:10;5.05;;;3.45;;
5787;SDS011;2920;48.158;12.254;2023-07-08T01:38:36;9.43;;;3.50;;
5787;SDS011;2920;48.158;12.254;2023-07-08T01:41:02;5.82;;;3.45;;
5787;SDS011;2920;48.158;12.254;2023-07-08T01:43:27;5.90;;;3.22;;
5787;SDS011;2920;48.158;12.254;2023-07-08T01:45:52;5.88;;;3.58;;
5787;SDS011;2920;48.158;12.254;2023-07-08T01:48:20;5.63;;;3.40;;
5787;SDS011;2920;48.158;12.254;2023-07-08T01:53:28;6.72;;;3.78;;
5787;SDS011;2920;48.158;12.254;2023-07-08T01:56:00;5.45;;;3.22;;
5787;SDS011;2920;48.158;12.254;2023-07-08T01:58:26;6.32;;;3.55;;
5787;SDS011;2920;48.158;12.254;2023-07-08T02:00:52;9.90;;;3.95;;
5787;SDS011;2920;48.158;12.254;2023-07-08T02:03:17;6.43;;;3.88;;
5787;SDS011;2920;48.158;12.254;2023-07-08T02:05:43;5.57;;;3.92;;
5787;SDS011;2920;48.158;12.254;2023-07-08T02:08:08;5.50;;;3.30;;
5787;SDS011;2920;48.158;12.254;2023-07-08T02:10:34;6.25;;;3.55;;
5787;SDS011;2920;48.158;12.254;2023-07-08T02:12:59;8.30;;;3.75;;
5787;SDS011;2920;48.158;12.254;2023-07-08T02:15:25;6.43;;;3.58;;
5787;SDS011;2920;48.158;12.254;2023-07-08T02:17:51;5.88;;;3.78;;
5787;SDS011;2920;48.158;12.254;2023-07-08T02:20:16;4.65;;;3.30;;
5787;SDS011;2920;48.158;12.254;2023-07-08T02:22:41;5.30;;;3.42;;
5787;SDS011;2920;48.158;12.254;2023-07-08T02:25:07;5.28;;;3.42;;
5787;SDS011;2920;48.158;12.254;2023-07-08T02:27:34;6.93;;;4.07;;
5787;SDS011;2920;48.158;12.254;2023-07-08T02:30:00;9.20;;;4.10;;
5787;SDS011;2920;48.158;12.254;2023-07-08T02:32:25;5.85;;;3.42;;
5787;SDS011;2920;48.158;12.254;2023-07-08T02:34:50;5.93;;;3.92;;
5787;SDS011;2920;48.158;12.254;2023-07-08T02:37:17;7.80;;;4.00;;
5787;SDS011;2920;48.158;12.254;2023-07-08T02:39:42;7.82;;;4.10;;
5787;SDS011;2920;48.158;12.254;2023-07-08T02:42:08;6.57;;;3.92;;
5787;SDS011;2920;48.158;12.254;2023-07-08T02:44:33;8.10;;;3.70;;
5787;SDS011;2920;48.158;12.254;2023-07-08T02:46:59;6.30;;;3.80;;
5787;SDS011;2920;48.158;12.254;2023-07-08T02:49:25;7.60;;;3.80;;
5787;SDS011;2920;48.158;12.254;2023-07-08T02:51:50;7.18;;;4.20;;
5787;SDS011;2920;48.158;12.254;2023-07-08T02:54:15;10.85;;;4.53;;
5787;SDS011;2920;48.158;12.254;2023-07-08T02:56:41;5.88;;;3.90;;
5787;SDS011;2920;48.158;12.254;2023-07-08T02:59:06;8.40;;;4.95;;
5787;SDS011;2920;48.158;12.254;2023-07-08T03:01:31;9.13;;;4.18;;
5787;SDS011;2920;48.158;12.254;2023-07-08T03:03:59;8.48;;;4.47;;
5787;SDS011;2920;48.158;12.254;2023-07-08T03:06:25;7.75;;;3.92;;
5787;SDS011;2920;48.158;12.254;2023-07-08T03:08:50;7.68;;;3.90;;
5787;SDS011;2920;48.158;12.254;2023-07-08T03:11:15;6.40;;;4.00;;
5787;SDS011;2920;48.158;12.254;2023-07-08T03:13:41;6.95;;;4.30;;
5787;SDS011;2920;48.158;12.254;2023-07-08T03:16:06;8.02;;;3.88;;
5787;SDS011;2920;48.158;12.254;2023-07-08T03:18:37;9.95;;;4.80;;
5787;SDS011;2920;48.158;12.254;2023-07-08T03:21:10;9.80;;;4.72;;
5787;SDS011;2920;48.158;12.254;2023-07-08T03:23:37;7.35;;;4.20;;
5787;SDS011;2920;48.158;12.254;2023-07-08T03:26:02;7.18;;;3.80;;
5787;SDS011;2920;48.158;12.254;2023-07-08T03:28:28;6.45;;;3.92;;
5787;SDS011;2920;48.158;12.254;2023-07-08T03:30:53;6.82;;;4.05;;
5787;SDS011;2920;48.158;12.254;2023-07-08T03:33:18;7.10;;;4.18;;
5787;SDS011;2920;48.158;12.254;2023-07-08T03:35:44;9.18;;;4.43;;
5787;SDS011;2920;48.158;12.254;2023-07-08T03:38:10;5.85;;;3.80;;
5787;SDS011;2920;48.158;12.254;2023-07-08T03:40:35;6.80;;;3.78;;
5787;SDS011;2920;48.158;12.254;2023-07-08T03:43:00;7.03;;;4.13;;
5787;SDS011;2920;48.158;12.254;2023-07-08T03:45:26;9.10;;;4.45;;
5787;SDS011;2920;48.158;12.254;2023-07-08T03:47:51;8.60;;;4.25;;
5787;SDS011;2920;48.158;12.254;2023-07-08T03:50:22;8.25;;;4.03;;
5787;SDS011;2920;48.158;12.254;2023-07-08T03:52:49;6.40;;;4.03;;
5787;SDS011;2920;48.158;12.254;2023-07-08T03:55:16;6.57;;;4.03;;
5787;SDS011;2920;48.158;12.254;2023-07-08T03:57:41;6.88;;;4.22;;
5787;SDS011;2920;48.158;12.254;2023-07-08T04:00:07;8.35;;;4.40;;
5787;SDS011;2920;48.158;12.254;2023-07-08T04:02:37;7.40;;;5.05;;
5787;SDS011;2920;48.158;12.254;2023-07-08T04:05:03;7.45;;;4.10;;
5787;SDS011;2920;48.158;12.254;2023-07-08T04:07:29;6.90;;;4.18;;
5787;SDS011;2920;48.158;12.254;2023-07-08T04:09:54;7.57;;;3.90;;
5787;SDS011;2920;48.158;12.254;2023-07-08T04:12:19;7.35;;;4.18;;
5787;SDS011;2920;48.158;12.254;2023-07-08T04:14:45;5.70;;;3.90;;
5787;SDS011;2920;48.158;12.254;2023-07-08T04:17:10;7.65;;;4.13;;
5787;SDS011;2920;48.158;12.254;2023-07-08T04:19:36;8.18;;;4.72;;
5787;SDS011;2920;48.158;12.254;2023-07-08T04:22:01;8.60;;;4.47;;
5787;SDS011;2920;48.158;12.254;2023-07-08T04:24:27;7.10;;;3.70;;
5787;SDS011;2920;48.158;12.254;2023-07-08T04:26:53;7.47;;;4.25;;
5787;SDS011;2920;48.158;12.254;2023-07-08T04:29:20;8.95;;;4.60;;
5787;SDS011;2920;48.158;12.254;2023-07-08T04:31:48;8.25;;;4.15;;
5787;SDS011;2920;48.158;12.254;2023-07-08T04:34:13;7.30;;;4.30;;
5787;SDS011;2920;48.158;12.254;2023-07-08T04:36:39;6.20;;;4.25;;
5787;SDS011;2920;48.158;12.254;2023-07-08T04:39:05;6.43;;;4.18;;
5787;SDS011;2920;48.158;12.254;2023-07-08T04:41:31;9.20;;;4.50;;
5787;SDS011;2920;48.158;12.254;2023-07-08T04:43:57;6.50;;;4.55;;
5787;SDS011;2920;48.158;12.254;2023-07-08T04:46:27;8.63;;;5.07;;
5787;SDS011;2920;48.158;12.254;2023-07-08T04:49:03;6.95;;;4.15;;
5787;SDS011;2920;48.158;12.254;2023-07-08T04:51:30;7.60;;;4.40;;
5787;SDS011;2920;48.158;12.254;2023-07-08T04:53:56;7.80;;;4.38;;
5787;SDS011;2920;48.158;12.254;2023-07-08T04:56:21;8.38;;;4.90;;
5787;SDS011;2920;48.158;12.254;2023-07-08T04:58:48;9.80;;;5.10;;
5787;SDS011;2920;48.158;12.254;2023-07-08T05:01:13;7.70;;;4.60;;
5787;SDS011;2920;48.158;12.254;2023-07-08T05:03:39;7.20;;;4.53;;
5787;SDS011;2920;48.158;12.254;2023-07-08T05:06:04;9.13;;;4.32;;
5787;SDS011;2920;48.158;12.254;2023-07-08T05:08:29;10.80;;;4.55;;
5787;SDS011;2920;48.158;12.254;2023-07-08T05:10:55;7.38;;;4.38;;
5787;SDS011;2920;48.158;12.254;2023-07-08T05:13:20;7.85;;;4.70;;
5787;SDS011;2920;48.158;12.254;2023-07-08T05:15:47;8.60;;;4.57;;
5787;SDS011;2920;48.158;12.254;2023-07-08T05:18:13;10.15;;;4.40;;
5787;SDS011;2920;48.158;12.254;2023-07-08T05:20:38;6.80;;;4.47;;
5787;SDS011;2920;48.158;12.254;2023-07-08T05:23:04;6.90;;;4.55;;
5787;SDS011;2920;48.158;12.254;2023-07-08T05:25:31;7.22;;;4.30;;
5787;SDS011;2920;48.158;12.254;2023-07-08T05:27:57;9.25;;;4.90;;
5787;SDS011;2920;48.158;12.254;2023-07-08T05:30:22;11.38;;;4.60;;
5787;SDS011;2920;48.158;12.254;2023-07-08T05:32:48;7.53;;;5.03;;
5787;SDS011;2920;48.158;12.254;2023-07-08T05:35:13;8.52;;;4.88;;
5787;SDS011;2920;48.158;12.254;2023-07-08T05:37:39;8.13;;;5.30;;
5787;SDS011;2920;48.158;12.254;2023-07-08T05:40:05;8.25;;;4.93;;
5787;SDS011;2920;48.158;12.254;2023-07-08T05:42:32;8.20;;;4.78;;
5787;SDS011;2920;48.158;12.254;2023-07-08T05:44:57;7.50;;;4.57;;
5787;SDS011;2920;48.158;12.254;2023-07-08T05:47:23;7.88;;;4.47;;
5787;SDS011;2920;48.158;12.254;2023-07-08T05:49:48;8.60;;;4.82;;
5787;SDS011;2920;48.158;12.254;2023-07-08T05:52:14;8.73;;;4.88;;
5787;SDS011;2920;48.158;12.254;2023-07-08T05:54:39;8.07;;;4.38;;
5787;SDS011;2920;48.158;12.254;2023-07-08T05:57:06;8.02;;;5.07;;
5787;SDS011;2920;48.158;12.254;2023-07-08T05:59:33;9.30;;;5.55;;
5787;SDS011;2920;48.158;12.254;2023-07-08T06:01:59;77.22;;;10.98;;
5787;SDS011;2920;48.158;12.254;2023-07-08T06:04:24;11.20;;;5.30;;
5787;SDS011;2920;48.158;12.254;2023-07-08T06:06:50;10.60;;;4.65;;
5787;SDS011;2920;48.158;12.254;2023-07-08T06:09:15;6.45;;;3.97;;
5787;SDS011;2920;48.158;12.254;2023-07-08T06:11:40;7.40;;;4.95;;
5787;SDS011;2920;48.158;12.254;2023-07-08T06:14:06;6.07;;;3.88;;
5787;SDS011;2920;48.158;12.254;2023-07-08T06:16:31;7.85;;;4.60;;
5787;SDS011;2920;48.158;12.254;2023-07-08T06:18:57;6.43;;;4.47;;
5787;SDS011;2920;48.158;12.254;2023-07-08T06:21:23;7.82;;;4.63;;
5787;SDS011;2920;48.158;12.254;2023-07-08T06:23:49;8.18;;;5.05;;
5787;SDS011;2920;48.158;12.254;2023-07-08T06:26:14;8.43;;;4.90;;
5787;SDS011;2920;48.158;12.254;2023-07-08T06:28:39;10.90;;;4.85;;
5787;SDS011;2920;48.158;12.254;2023-07-08T06:31:04;9.90;;;4.68;;
5787;SDS011;2920;48.158;12.254;2023-07-08T06:33:30;40.42;;;6.45;;
5787;SDS011;2920;48.158;12.254;2023-07-08T06:35:55;8.10;;;4.85;;
5787;SDS011;2920;48.158;12.254;2023-07-08T06:38:20;8.52;;;4.80;;
5787;SDS011;2920;48.158;12.254;2023-07-08T06:40:46;12.63;;;5.35;;
5787;SDS011;2920;48.158;12.254;2023-07-08T06:43:11;7.63;;;4.43;;
5787;SDS011;2920;48.158;12.254;2023-07-08T06:45:36;9.00;;;5.35;;
5787;SDS011;2920;48.158;12.254;2023-07-08T06:48:01;8.40;;;5.38;;
5787;SDS011;2920;48.158;12.254;2023-07-08T06:50:27;11.52;;;5.70;;
5787;SDS011;2920;48.158;12.254;2023-07-08T06:52:52;7.80;;;5.28;;
5787;SDS011;2920;48.158;12.254;2023-07-08T06:55:17;9.93;;;5.60;;
5787;SDS011;2920;48.158;12.254;2023-07-08T06:57:43;8.40;;;4.80;;
5787;SDS011;2920;48.158;12.254;2023-07-08T07:00:09;8.88;;;5.65;;
5787;SDS011;2920;48.158;12.254;2023-07-08T07:02:35;7.93;;;5.20;;
5787;SDS011;2920;48.158;12.254;2023-07-08T07:05:01;7.80;;;5.13;;
5787;SDS011;2920;48.158;12.254;2023-07-08T07:07:27;7.82;;;4.90;;
5787;SDS011;2920;48.158;12.254;2023-07-08T07:09:53;9.13;;;4.88;;
5787;SDS011;2920;48.158;12.254;2023-07-08T07:12:19;8.77;;;5.00;;
5787;SDS011;2920;48.158;12.254;2023-07-08T07:14:44;9.38;;;5.68;;
5787;SDS011;2920;48.158;12.254;2023-07-08T07:17:09;8.07;;;4.55;;
5787;SDS011;2920;48.158;12.254;2023-07-08T07:19:35;9.02;;;5.10;;
5787;SDS011;2920;48.158;12.254;2023-07-08T07:22:00;8.32;;;4.80;;
5787;SDS011;2920;48.158;12.254;2023-07-08T07:24:26;9.85;;;5.47;;
5787;SDS011;2920;48.158;12.254;2023-07-08T07:26:51;9.77;;;5.38;;
5787;SDS011;2920;48.158;12.254;2023-07-08T07:29:17;8.07;;;5.30;;
5787;SDS011;2920;48.158;12.254;2023-07-08T07:31:42;8.52;;;4.70;;
5787;SDS011;2920;48.158;12.254;2023-07-08T07:34:09;10.57;;;5.85;;
5787;SDS011;2920;48.158;12.254;2023-07-08T07:36:34;7.78;;;5.10;;
5787;SDS011;2920;48.158;12.254;2023-07-08T07:39:00;9.88;;;5.45;;
5787;SDS011;2920;48.158;12.254;2023-07-08T07:41:25;8.98;;;5.40;;
5787;SDS011;2920;48.158;12.254;2023-07-08T07:43:50;10.07;;;5.28;;
5787;SDS011;2920;48.158;12.254;2023-07-08T07:46:16;9.25;;;4.97;;
5787;SDS011;2920;48.158;12.254;2023-07-08T07:48:41;9.52;;;5.38;;
5787;SDS011;2920;48.158;12.254;2023-07-08T07:51:07;10.23;;;5.53;;
5787;SDS011;2920;48.158;12.254;2023-07-08T07:53:35;10.63;;;6.00;;
5787;SDS011;2920;48.158;12.254;2023-07-08T07:56:01;9.70;;;5.90;;
5787;SDS011;2920;48.158;12.254;2023-07-08T07:58:28;9.07;;;5.57;;
5787;SDS011;2920;48.158;12.254;2023-07-08T08:00:54;18.17;;;5.60;;
5787;SDS011;2920;48.158;12.254;2023-07-08T08:03:19;9.30;;;4.82;;
5787;SDS011;2920;48.158;12.254;2023-07-08T08:05:45;9.35;;;5.72;;
5787;SDS011;2920;48.158;12.254;2023-07-08T08:08:11;7.80;;;5.40;;
5787;SDS011;2920;48.158;12.254;2023-07-08T08:10:36;7.47;;;5.53;;
5787;SDS011;2920;48.158;12.254;2023-07-08T08:13:02;8.15;;;5.00;;
5787;SDS011;2920;48.158;12.254;2023-07-08T08:15:27;9.15;;;6.20;;
5787;SDS011;2920;48.158;12.254;2023-07-08T08:17:53;9.05;;;5.65;;
5787;SDS011;2920;48.158;12.254;2023-07-08T08:20:19;7.95;;;5.60;;
5787;SDS011;2920;48.158;12.254;2023-07-08T08:22:45;11.18;;;6.38;;
5787;SDS011;2920;48.158;12.254;2023-07-08T08:25:11;8.60;;;5.93;;
5787;SDS011;2920;48.158;12.254;2023-07-08T08:27:37;8.60;;;5.85;;
5787;SDS011;2920;48.158;12.254;2023-07-08T08:30:04;13.23;;;5.85;;
5787;SDS011;2920;48.158;12.254;2023-07-08T08:32:30;9.63;;;5.97;;
5787;SDS011;2920;48.158;12.254;2023-07-08T08:34:55;10.38;;;5.72;;
5787;SDS011;2920;48.158;12.254;2023-07-08T08:37:20;9.35;;;5.80;;
5787;SDS011;2920;48.158;12.254;2023-07-08T08:39:46;10.10;;;6.03;;
5787;SDS011;2920;48.158;12.254;2023-07-08T08:42:16;7.38;;;5.28;;
5787;SDS011;2920;48.158;12.254;2023-07-08T08:44:56;9.13;;;6.13;;
5787;SDS011;2920;48.158;12.254;2023-07-08T08:47:39;9.05;;;6.05;;
5787;SDS011;2920;48.158;12.254;2023-07-08T08:52:40;8.85;;;5.65;;
5787;SDS011;2920;48.158;12.254;2023-07-08T08:55:13;12.07;;;6.55;;
5787;SDS011;2920;48.158;12.254;2023-07-08T08:57:48;9.25;;;6.05;;
5787;SDS011;2920;48.158;12.254;2023-07-08T09:04:06;10.50;;;5.88;;
5787;SDS011;2920;48.158;12.254;2023-07-08T09:06:24;10.02;;;6.32;;
5787;SDS011;2920;48.158;12.254;2023-07-08T09:08:51;15.32;;;6.93;;
5787;SDS011;2920;48.158;12.254;2023-07-08T09:13:57;10.68;;;6.32;;
5787;SDS011;2920;48.158;12.254;2023-07-08T09:16:40;8.75;;;6.13;;
5787;SDS011;2920;48.158;12.254;2023-07-08T09:19:14;10.02;;;6.20;;
5787;SDS011;2920;48.158;12.254;2023-07-08T09:24:19;12.02;;;6.38;;
5787;SDS011;2920;48.158;12.254;2023-07-08T09:26:47;11.93;;;6.47;;
5787;SDS011;2920;48.158;12.254;2023-07-08T09:29:15;12.93;;;5.97;;
5787;SDS011;2920;48.158;12.254;2023-07-08T09:31:40;12.48;;;6.70;;
5787;SDS011;2920;48.158;12.254;2023-07-08T09:34:14;9.32;;;6.65;;
5787;SDS011;2920;48.158;12.254;2023-07-08T09:36:42;9.82;;;6.60;;
5787;SDS011;2920;48.158;12.254;2023-07-08T09:39:12;11.32;;;6.53;;
5787;SDS011;2920;48.158;12.254;2023-07-08T09:41:39;10.65;;;7.00;;
5787;SDS011;2920;48.158;12.254;2023-07-08T09:44:08;10.40;;;6.90;;
5787;SDS011;2920;48.158;12.254;2023-07-08T09:46:37;9.88;;;6.82;;
5787;SDS011;2920;48.158;12.254;2023-07-08T09:49:09;10.82;;;6.40;;
5787;SDS011;2920;48.158;12.254;2023-07-08T09:51:41;10.85;;;7.05;;
5787;SDS011;2920;48.158;12.254;2023-07-08T09:54:07;11.30;;;6.28;;
5787;SDS011;2920;48.158;12.254;2023-07-08T09:56:33;8.93;;;6.05;;
5787;SDS011;2920;48.158;12.254;2023-07-08T09:58:58;11.05;;;6.63;;
5787;SDS011;2920;48.158;12.254;2023-07-08T10:01:24;13.73;;;7.05;;
5787;SDS011;2920;48.158;12.254;2023-07-08T10:03:51;10.95;;;6.40;;
5787;SDS011;2920;48.158;12.254;2023-07-08T10:06:17;10.85;;;6.70;;
5787;SDS011;2920;48.158;12.254;2023-07-08T10:08:45;9.75;;;5.95;;
5787;SDS011;2920;48.158;12.254;2023-07-08T10:13:48;12.05;;;6.80;;
5787;SDS011;2920;48.158;12.254;2023-07-08T10:16:29;9.43;;;6.35;;
5787;SDS011;2920;48.158;12.254;2023-07-08T10:18:55;10.43;;;6.88;;
5787;SDS011;2920;48.158;12.254;2023-07-08T10:21:26;11.05;;;6.22;;
5787;SDS011;2920;48.158;12.254;2023-07-08T10:27:27;10.60;;;6.88;;
5787;SDS011;2920;48.158;12.254;2023-07-08T10:32:34;10.30;;;6.80;;
5787;SDS011;2920;48.158;12.254;2023-07-08T10:51:48;7.90;;;6.03;;
5787;SDS011;2920;48.158;12.254;2023-07-08T10:54:42;12.40;;;6.57;;
5787;SDS011;2920;48.158;12.254;2023-07-08T10:57:15;11.18;;;7.07;;
5787;SDS011;2920;48.158;12.254;2023-07-08T11:02:36;13.60;;;6.85;;
5787;SDS011;2920;48.158;12.254;2023-07-08T11:07:54;8.80;;;6.13;;
5787;SDS011;2920;48.158;12.254;2023-07-08T11:13:17;21.88;;;6.70;;
5787;SDS011;2920;48.158;12.254;2023-07-08T11:16:04;10.00;;;6.32;;
5787;SDS011;2920;48.158;12.254;2023-07-08T11:18:40;9.98;;;6.82;;
5787;SDS011;2920;48.158;12.254;2023-07-08T11:21:26;10.57;;;6.97;;
5787;SDS011;2920;48.158;12.254;2023-07-08T11:23:58;10.68;;;6.28;;
5787;SDS011;2920;48.158;12.254;2023-07-08T11:26:48;9.85;;;6.70;;
5787;SDS011;2920;48.158;12.254;2023-07-08T11:29:25;9.35;;;6.60;;
5787;SDS011;2920;48.158;12.254;2023-07-08T11:31:55;8.88;;;6.65;;
5787;SDS011;2920;48.158;12.254;2023-07-08T11:34:20;7.78;;;6.00;;
5787;SDS011;2920;48.158;12.254;2023-07-08T11:36:46;10.45;;;6.55;;
5787;SDS011;2920;48.158;12.254;2023-07-08T11:39:31;11.18;;;7.10;;
5787;SDS011;2920;48.158;12.254;2023-07-08T11:42:18;8.55;;;6.05;;
5787;SDS011;2920;48.158;12.254;2023-07-08T11:44:49;9.77;;;6.57;;
5787;SDS011;2920;48.158;12.254;2023-07-08T11:47:18;9.23;;;6.65;;
5787;SDS011;2920;48.158;12.254;2023-07-08T11:49:47;8.48;;;6.45;;
5787;SDS011;2920;48.158;12.254;2023-07-08T11:52:16;8.02;;;6.45;;
5787;SDS011;2920;48.158;12.254;2023-07-08T11:54:47;11.60;;;6.43;;
5787;SDS011;2920;48.158;12.254;2023-07-08T11:57:23;10.18;;;7.28;;
5787;SDS011;2920;48.158;12.254;2023-07-08T12:00:16;12.82;;;6.88;;
5787;SDS011;2920;48.158;12.254;2023-07-08T12:02:48;9.45;;;6.93;;
5787;SDS011;2920;48.158;12.254;2023-07-08T12:05:19;12.13;;;6.90;;
5787;SDS011;2920;48.158;12.254;2023-07-08T12:07:57;9.02;;;6.68;;
5787;SDS011;2920;48.158;12.254;2023-07-08T12:13:09;13.93;;;6.65;;
5787;SDS011;2920;48.158;12.254;2023-07-08T12:15:37;8.43;;;7.07;;
5787;SDS011;2920;48.158;12.254;2023-07-08T12:20:59;12.38;;;6.65;;
5787;SDS011;2920;48.158;12.254;2023-07-08T12:23:26;7.68;;;5.82;;
5787;SDS011;2920;48.158;12.254;2023-07-08T12:25:53;9.73;;;6.40;;
5787;SDS011;2920;48.158;12.254;2023-07-08T12:28:19;7.90;;;6.18;;
5787;SDS011;2920;48.158;12.254;2023-07-08T12:30:46;7.15;;;5.90;;
5787;SDS011;2920;48.158;12.254;2023-07-08T12:33:13;9.43;;;6.10;;
5787;SDS011;2920;48.158;12.254;2023-07-08T12:35:40;17.95;;;6.72;;
5787;SDS011;2920;48.158;12.254;2023-07-08T12:38:12;11.10;;;6.75;;
5787;SDS011;2920;48.158;12.254;2023-07-08T12:40:43;7.90;;;5.75;;
5787;SDS011;2920;48.158;12.254;2023-07-08T12:43:11;8.97;;;6.37;;
5787;SDS011;2920;48.158;12.254;2023-07-08T12:45:37;30.48;;;7.85;;
5787;SDS011;2920;48.158;12.254;2023-07-08T12:48:02;7.65;;;6.32;;
5787;SDS011;2920;48.158;12.254;2023-07-08T12:50:28;7.65;;;5.40;;
5787;SDS011;2920;48.158;12.254;2023-07-08T12:52:53;8.18;;;5.88;;
5787;SDS011;2920;48.158;12.254;2023-07-08T12:55:19;6.77;;;5.90;;
5787;SDS011;2920;48.158;12.254;2023-07-08T12:57:45;10.40;;;6.80;;
5787;SDS011;2920;48.158;12.254;2023-07-08T13:00:40;8.93;;;6.25;;
5787;SDS011;2920;48.158;12.254;2023-07-08T13:03:12;7.72;;;6.30;;
5787;SDS011;2920;48.158;12.254;2023-07-08T13:05:40;9.43;;;5.85;;
5787;SDS011;2920;48.158;12.254;2023-07-08T13:08:07;7.57;;;5.43;;
5787;SDS011;2920;48.158;12.254;2023-07-08T13:10:36;8.13;;;6.03;;
5787;SDS011;2920;48.158;12.254;2023-07-08T13:13:02;10.93;;;5.18;;
5787;SDS011;2920;48.158;12.254;2023-07-08T13:15:38;7.10;;;5.68;;
5787;SDS011;2920;48.158;12.254;2023-07-08T13:18:05;6.72;;;5.13;;
5787;SDS011;2920;48.158;12.254;2023-07-08T13:20:53;7.05;;;5.20;;
5787;SDS011;2920;48.158;12.254;2023-07-08T13:23:19;7.00;;;5.80;;
5787;SDS011;2920;48.158;12.254;2023-07-08T13:25:47;9.17;;;5.60;;
5787;SDS011;2920;48.158;12.254;2023-07-08T13:28:16;9.25;;;6.25;;
5787;SDS011;2920;48.158;12.254;2023-07-08T13:30:56;6.75;;;5.50;;
5787;SDS011;2920;48.158;12.254;2023-07-08T13:33:32;7.90;;;5.35;;
5787;SDS011;2920;48.158;12.254;2023-07-08T13:36:01;8.40;;;6.15;;
5787;SDS011;2920;48.158;12.254;2023-07-08T13:38:31;8.27;;;5.97;;
5787;SDS011;2920;48.158;12.254;2023-07-08T13:41:00;8.88;;;5.60;;
5787;SDS011;2920;48.158;12.254;2023-07-08T13:43:30;9.98;;;6.13;;
5787;SDS011;2920;48.158;12.254;2023-07-08T13:45:57;11.13;;;6.25;;
5787;SDS011;2920;48.158;12.254;2023-07-08T13:48:36;8.75;;;5.70;;
5787;SDS011;2920;48.158;12.254;2023-07-08T13:53:40;8.10;;;5.57;;
5787;SDS011;2920;48.158;12.254;2023-07-08T13:56:19;8.18;;;5.80;;
5787;SDS011;2920;48.158;12.254;2023-07-08T13:58:48;7.50;;;5.40;;
5787;SDS011;2920;48.158;12.254;2023-07-08T14:01:17;8.10;;;5.50;;
5787;SDS011;2920;48.158;12.254;2023-07-08T14:03:47;8.57;;;5.32;;
5787;SDS011;2920;48.158;12.254;2023-07-08T14:06:17;9.48;;;6.32;;
5787;SDS011;2920;48.158;12.254;2023-07-08T14:08:44;8.65;;;5.13;;
5787;SDS011;2920;48.158;12.254;2023-07-08T14:11:09;7.63;;;4.88;;
5787;SDS011;2920;48.158;12.254;2023-07-08T14:13:35;8.80;;;6.05;;
5787;SDS011;2920;48.158;12.254;2023-07-08T14:16:01;8.65;;;5.40;;
5787;SDS011;2920;48.158;12.254;2023-07-08T14:18:27;7.30;;;5.47;;
5787;SDS011;2920;48.158;12.254;2023-07-08T14:20:52;7.40;;;5.63;;
5787;SDS011;2920;48.158;12.254;2023-07-08T14:23:19;7.05;;;5.05;;
5787;SDS011;2920;48.158;12.254;2023-07-08T14:25:44;8.90;;;5.75;;
5787;SDS011;2920;48.158;12.254;2023-07-08T14:28:10;6.15;;;4.75;;
5787;SDS011;2920;48.158;12.254;2023-07-08T14:30:36;8.95;;;5.70;;
5787;SDS011;2920;48.158;12.254;2023-07-08T14:33:14;12.32;;;5.47;;
5787;SDS011;2920;48.158;12.254;2023-07-08T14:35:40;9.63;;;5.57;;
5787;SDS011;2920;48.158;12.254;2023-07-08T14:38:10;6.88;;;4.97;;
5787;SDS011;2920;48.158;12.254;2023-07-08T14:40:37;7.85;;;4.85;;
5787;SDS011;2920;48.158;12.254;2023-07-08T14:43:14;7.90;;;5.22;;
5787;SDS011;2920;48.158;12.254;2023-07-08T14:45:46;11.55;;;5.78;;
5787;SDS011;2920;48.158;12.254;2023-07-08T14:48:14;7.93;;;5.45;;
5787;SDS011;2920;48.158;12.254;2023-07-08T14:50:39;9.57;;;5.32;;
5787;SDS011;2920;48.158;12.254;2023-07-08T14:53:05;8.32;;;5.50;;
5787;SDS011;2920;48.158;12.254;2023-07-08T14:55:31;10.35;;;5.60;;
5787;SDS011;2920;48.158;12.254;2023-07-08T14:57:56;8.18;;;5.38;;
5787;SDS011;2920;48.158;12.254;2023-07-08T15:00:22;11.45;;;5.55;;
5787;SDS011;2920;48.158;12.254;2023-07-08T15:02:49;7.85;;;5.10;;
5787;SDS011;2920;48.158;12.254;2023-07-08T15:05:20;9.13;;;5.13;;
5787;SDS011;2920;48.158;12.254;2023-07-08T15:07:50;9.35;;;5.47;;
5787;SDS011;2920;48.158;12.254;2023-07-08T15:10:17;8.25;;;5.15;;
5787;SDS011;2920;48.158;12.254;2023-07-08T15:12:43;6.53;;;4.65;;
5787;SDS011;2920;48.158;12.254;2023-07-08T15:15:20;8.15;;;5.00;;
5787;SDS011;2920;48.158;12.254;2023-07-08T15:17:48;6.85;;;4.50;;
5787;SDS011;2920;48.158;12.254;2023-07-08T15:20:14;8.75;;;5.63;;
5787;SDS011;2920;48.158;12.254;2023-07-08T15:22:40;9.45;;;5.47;;
5787;SDS011;2920;48.158;12.254;2023-07-08T15:25:12;11.70;;;5.40;;
5787;SDS011;2920;48.158;12.254;2023-07-08T15:27:39;10.25;;;5.60;;
5787;SDS011;2920;48.158;12.254;2023-07-08T15:30:13;7.60;;;5.10;;
5787;SDS011;2920;48.158;12.254;2023-07-08T15:32:40;11.38;;;5.72;;
5787;SDS011;2920;48.158;12.254;2023-07-08T15:35:10;10.77;;;5.25;;
5787;SDS011;2920;48.158;12.254;2023-07-08T15:37:36;8.10;;;5.45;;
5787;SDS011;2920;48.158;12.254;2023-07-08T15:40:02;9.33;;;5.37;;
5787;SDS011;2920;48.158;12.254;2023-07-08T15:42:33;7.97;;;5.28;;
5787;SDS011;2920;48.158;12.254;2023-07-08T15:44:59;7.63;;;4.88;;
5787;SDS011;2920;48.158;12.254;2023-07-08T15:47:25;7.28;;;4.90;;
5787;SDS011;2920;48.158;12.254;2023-07-08T15:49:51;7.63;;;4.60;;
5787;SDS011;2920;48.158;12.254;2023-07-08T15:52:16;7.57;;;5.15;;
5787;SDS011;2920;48.158;12.254;2023-07-08T15:54:41;8.23;;;4.97;;
5787;SDS011;2920;48.158;12.254;2023-07-08T15:57:07;7.25;;;5.03;;
5787;SDS011;2920;48.158;12.254;2023-07-08T15:59:35;8.98;;;4.88;;
5787;SDS011;2920;48.158;12.254;2023-07-08T16:02:03;8.48;;;5.30;;
5787;SDS011;2920;48.158;12.254;2023-07-08T16:04:31;9.85;;;5.25;;
5787;SDS011;2920;48.158;12.254;2023-07-08T16:06:57;7.72;;;5.10;;